createdAt,value
2023-05-19T00:03:52.698Z,100440.50
2023-05-19T00:07:58.842Z,100440.75
2023-05-19T00:12:00.772Z,100434.47
2023-05-19T00:16:02.746Z,100436.63
2023-05-19T00:20:07.619Z,100436.22
2023-05-19T00:24:09.305Z,100429.03
2023-05-19T00:28:11.102Z,100432.00
2023-05-19T00:32:13.135Z,100437.59
2023-05-19T00:36:15.034Z,100425.00
2023-05-19T00:40:16.960Z,100436.91
2023-05-19T00:44:18.720Z,100425.97
2023-05-19T00:48:21.092Z,100428.41
2023-05-19T00:52:23.087Z,100430.78
2023-05-19T00:56:24.917Z,100426.56
2023-05-19T01:00:26.660Z,100426.41
2023-05-19T01:04:29.872Z,100418.38
2023-05-19T01:08:35.014Z,100420.72
2023-05-19T01:12:37.056Z,100414.00
2023-05-19T01:16:47.084Z,100401.78
2023-05-19T01:20:59.360Z,100402.69
2023-05-19T01:25:10.592Z,100400.84
2023-05-19T01:29:18.136Z,100411.44
2023-05-19T01:33:21.684Z,100404.91
2023-05-19T01:37:24.472Z,100407.53
2023-05-19T01:41:26.591Z,100407.97
2023-05-19T01:45:30.299Z,100410.34
2023-05-19T01:49:32.128Z,100409.91
2023-05-19T01:53:33.973Z,100415.03
2023-05-19T01:57:59.985Z,100412.97
2023-05-19T02:02:09.366Z,100416.16
2023-05-19T02:06:20.173Z,100421.03
2023-05-19T02:10:31.226Z,100418.72
2023-05-19T02:14:39.413Z,100422.50
2023-05-19T02:18:45.721Z,100425.09
2023-05-19T02:22:47.854Z,100418.78
2023-05-19T02:26:50.717Z,100416.06
2023-05-19T02:30:53.563Z,100414.81
2023-05-19T02:34:56.841Z,100420.75
2023-05-19T02:38:58.540Z,100407.66
2023-05-19T02:43:00.238Z,100414.03
2023-05-19T02:47:02.190Z,100409.22
2023-05-19T02:51:04.157Z,100409.41
2023-05-19T02:55:06.304Z,100395.53
2023-05-19T02:59:08.488Z,100402.50
2023-05-19T03:03:10.574Z,100402.72
2023-05-19T03:07:14.568Z,100397.88
2023-05-19T03:11:17.122Z,100398.97
2023-05-19T03:15:19.494Z,100395.56
2023-05-19T03:19:21.649Z,100398.56
2023-05-19T03:23:23.675Z,100402.78
2023-05-19T03:27:25.401Z,100404.88
2023-05-19T03:31:27.109Z,100394.34
2023-05-19T03:35:29.272Z,100401.53
2023-05-19T03:39:31.313Z,100410.63
2023-05-19T03:43:33.126Z,100410.38
2023-05-19T03:47:38.150Z,100414.84
2023-05-19T03:51:58.609Z,100420.75
2023-05-19T03:56:23.787Z,100410.38
2023-05-19T04:00:25.533Z,100417.13
2023-05-19T04:04:28.580Z,100422.81
2023-05-19T04:08:30.302Z,100420.47
2023-05-19T04:12:33.220Z,100416.47
2023-05-19T04:16:35.431Z,100414.31
2023-05-19T04:20:37.789Z,100416.63
2023-05-19T04:24:39.455Z,100420.63
2023-05-19T04:28:42.604Z,100420.97
2023-05-19T04:32:44.388Z,100427.91
2023-05-19T04:36:46.340Z,100419.25
2023-05-19T04:40:50.508Z,100428.50
2023-05-19T04:44:52.733Z,100425.69
2023-05-19T04:48:57.330Z,100427.81
2023-05-19T04:52:59.514Z,100428.63
2023-05-19T04:57:01.897Z,100436.00
2023-05-19T05:01:06.020Z,100438.91
2023-05-19T05:05:08.384Z,100443.97
2023-05-19T05:09:10.663Z,100439.94
2023-05-19T05:13:12.735Z,100439.69
2023-05-19T05:17:14.922Z,100449.34
2023-05-19T05:21:17.701Z,100444.88
2023-05-19T05:25:20.767Z,100442.47
2023-05-19T05:29:23.585Z,100431.78
2023-05-19T05:33:25.457Z,100430.44
2023-05-19T05:37:27.575Z,100427.19
2023-05-19T05:41:35.526Z,100426.41
2023-05-19T05:45:56.612Z,100426.13
2023-05-19T05:49:59.120Z,100427.75
2023-05-19T05:54:02.873Z,100432.94
2023-05-19T05:58:11.477Z,100430.13
2023-05-19T06:02:13.549Z,100426.44
2023-05-19T06:06:16.094Z,100433.69
2023-05-19T06:10:17.941Z,100432.22
2023-05-19T06:14:20.567Z,100429.69
2023-05-19T06:18:42.343Z,100428.97
2023-05-19T06:22:44.913Z,100425.88
2023-05-19T06:26:48.067Z,100432.41
2023-05-19T06:30:51.712Z,100423.94
2023-05-19T06:35:17.952Z,100431.47
2023-05-19T06:39:19.911Z,100435.66
2023-05-19T06:43:21.888Z,100445.75
2023-05-19T06:47:37.345Z,100443.00
2023-05-19T06:51:40.407Z,100438.28
2023-05-19T06:55:57.488Z,100448.91
2023-05-19T07:00:02.391Z,100448.72
2023-05-19T07:04:06.380Z,100452.34
2023-05-19T07:08:09.514Z,100439.31
2023-05-19T07:12:12.520Z,100439.38
2023-05-19T07:16:14.431Z,100427.84
2023-05-19T07:20:17.140Z,100423.06
2023-05-19T07:24:21.566Z,100423.44
2023-05-19T07:28:23.591Z,100421.44
2023-05-19T07:32:26.076Z,100408.13
2023-05-19T07:36:27.955Z,100404.31
2023-05-19T07:40:29.727Z,100406.22
2023-05-19T07:44:38.370Z,100399.72
2023-05-19T07:48:40.243Z,100403.41
2023-05-19T07:52:42.051Z,100398.25
2023-05-19T07:56:43.848Z,100391.38
2023-05-19T08:00:46.946Z,100390.38
2023-05-19T08:04:50.583Z,100382.94
2023-05-19T08:08:54.596Z,100381.84
2023-05-19T08:12:56.947Z,100378.19
2023-05-19T08:16:58.721Z,100384.41
2023-05-19T08:21:13.649Z,100383.91
2023-05-19T08:25:15.974Z,100382.84
2023-05-19T08:29:17.747Z,100391.50
2023-05-19T08:33:21.638Z,100377.06
2023-05-19T08:37:23.427Z,100372.88
2023-05-19T08:41:30.588Z,100373.44
2023-05-19T08:45:34.970Z,100354.75
2023-05-19T08:49:43.858Z,100368.13
2023-05-19T08:53:51.526Z,100358.38
2023-05-19T08:57:54.487Z,100360.31
2023-05-19T09:01:56.772Z,100349.41
2023-05-19T09:05:58.913Z,100347.09
2023-05-19T09:10:02.182Z,100343.88
2023-05-19T09:14:06.998Z,100340.16
2023-05-19T09:18:11.223Z,100333.91
2023-05-19T09:22:15.706Z,100320.88
2023-05-19T09:26:17.465Z,100339.53
2023-05-19T09:30:30.781Z,100324.84
2023-05-19T09:34:32.900Z,100309.50
2023-05-19T09:38:38.989Z,100317.50
2023-05-19T09:42:44.447Z,100310.72
2023-05-19T09:46:50.621Z,100306.66
2023-05-19T09:50:54.442Z,100312.47
2023-05-19T09:54:57.214Z,100313.22
2023-05-19T09:58:59.279Z,100308.94
2023-05-19T10:03:04.261Z,100314.91
2023-05-19T10:07:06.384Z,100301.25
2023-05-19T10:11:10.024Z,100300.94
2023-05-19T10:15:13.984Z,100301.03
2023-05-19T10:19:16.666Z,100292.63
2023-05-19T10:23:18.913Z,100292.69
2023-05-19T10:27:21.163Z,100277.66
2023-05-19T10:31:24.463Z,100279.47
2023-05-19T10:35:57.166Z,100271.59
2023-05-19T10:39:59.111Z,100276.41
2023-05-19T10:44:06.514Z,100277.28
2023-05-19T10:48:16.482Z,100276.59
2023-05-19T10:52:26.134Z,100275.63
2023-05-19T10:56:38.590Z,100260.50
2023-05-19T11:00:42.521Z,100266.06
2023-05-19T11:04:51.956Z,100265.53
2023-05-19T11:09:02.624Z,100248.16
2023-05-19T11:13:06.555Z,100255.78
2023-05-19T11:17:14.768Z,100250.13
2023-05-19T11:21:19.928Z,100253.06
2023-05-19T11:25:47.253Z,100251.25
2023-05-19T11:29:49.793Z,100245.28
2023-05-19T11:33:51.639Z,100250.53
2023-05-19T11:37:54.746Z,100241.75
2023-05-19T11:41:56.507Z,100232.50
2023-05-19T11:45:58.588Z,100225.59
2023-05-19T11:50:00.464Z,100227.59
2023-05-19T11:54:03.529Z,100224.97
2023-05-19T11:58:06.323Z,100216.03
2023-05-19T12:02:28.005Z,100213.97
2023-05-19T12:06:30.204Z,100220.25
2023-05-19T12:10:34.098Z,100229.25
2023-05-19T12:14:36.204Z,100218.88
2023-05-19T12:18:38.633Z,100221.03
2023-05-19T12:22:44.186Z,100219.72
2023-05-19T12:26:47.667Z,100214.03
2023-05-19T12:30:52.448Z,100209.59
2023-05-19T12:34:56.546Z,100214.03
2023-05-19T12:38:58.498Z,100206.53
2023-05-19T12:43:00.304Z,100203.94
2023-05-19T12:47:06.051Z,100203.25
2023-05-19T12:51:07.947Z,100191.09
2023-05-19T12:55:11.905Z,100196.53
2023-05-19T12:59:37.311Z,100188.72
2023-05-19T13:03:44.214Z,100193.28
2023-05-19T13:07:55.152Z,100188.94
2023-05-19T13:11:59.558Z,100180.28
2023-05-19T13:16:01.249Z,100183.81
2023-05-19T13:20:05.542Z,100177.84
2023-05-19T13:24:08.044Z,100172.94
2023-05-19T13:28:10.511Z,100175.03
2023-05-19T13:32:12.193Z,100171.38
2023-05-19T13:36:13.869Z,100162.25
2023-05-19T13:40:17.226Z,100164.88
2023-05-19T13:44:18.922Z,100176.63
2023-05-19T13:48:20.761Z,100177.28
2023-05-19T13:52:22.728Z,100163.31
2023-05-19T13:56:24.653Z,100174.41
2023-05-19T14:00:26.426Z,100173.53
2023-05-19T14:04:29.336Z,100160.78
2023-05-19T14:08:31.586Z,100156.81
2023-05-19T14:12:41.496Z,100157.75
2023-05-19T14:16:54.543Z,100164.41
2023-05-19T14:20:56.564Z,100162.59
2023-05-19T14:24:58.432Z,100159.97
2023-05-19T14:29:00.208Z,100149.31
2023-05-19T14:33:02.426Z,100134.31
2023-05-19T14:37:04.316Z,100137.81
2023-05-19T14:41:07.315Z,100151.13
2023-05-19T14:45:09.818Z,100133.81
2023-05-19T14:49:11.891Z,100131.00
2023-05-19T14:53:13.923Z,100133.59
2023-05-19T14:57:15.672Z,100137.75
2023-05-19T15:01:17.814Z,100128.66
2023-05-19T15:05:19.700Z,100129.34
2023-05-19T15:09:21.373Z,100139.09
2023-05-19T15:13:23.151Z,100137.66
2023-05-19T15:17:24.924Z,100128.94
2023-05-19T15:21:26.753Z,100125.81
2023-05-19T15:25:28.470Z,100120.66
2023-05-19T15:29:30.161Z,100123.88
2023-05-19T15:33:31.937Z,100114.53
2023-05-19T15:37:33.702Z,100121.25
2023-05-19T15:41:35.859Z,100122.31
2023-05-19T15:45:37.661Z,100125.13
2023-05-19T15:49:39.408Z,100119.75
2023-05-19T15:53:41.924Z,100123.25
2023-05-19T15:57:43.653Z,100129.56
2023-05-19T16:01:45.589Z,100120.41
2023-05-19T16:05:47.416Z,100108.75
2023-05-19T16:09:50.161Z,100104.84
2023-05-19T16:13:51.902Z,100113.25
2023-05-19T16:17:55.172Z,100108.94
2023-05-19T16:21:57.571Z,100094.41
2023-05-19T16:25:59.276Z,100097.22
2023-05-19T16:30:02.572Z,100096.53
2023-05-19T16:34:04.269Z,100102.22
2023-05-19T16:38:07.943Z,100086.38
2023-05-19T16:42:09.726Z,100081.28
2023-05-19T16:46:12.409Z,100083.88
2023-05-19T16:50:14.208Z,100088.19
2023-05-19T16:54:15.901Z,100086.94
2023-05-19T16:58:17.588Z,100082.97
2023-05-19T17:02:19.636Z,100088.13
2023-05-19T17:06:21.651Z,100076.72
2023-05-19T17:10:23.350Z,100072.56
2023-05-19T17:14:25.921Z,100077.53
2023-05-19T17:18:27.630Z,100081.69
2023-05-19T17:22:30.377Z,100072.38
2023-05-19T17:26:32.697Z,100079.19
2023-05-19T17:30:34.951Z,100085.38
2023-05-19T17:34:36.969Z,100087.19
2023-05-19T17:38:40.524Z,100085.66
2023-05-19T17:42:42.325Z,100083.47
2023-05-19T17:46:44.191Z,100086.88
2023-05-19T17:50:49.366Z,100097.13
2023-05-19T17:54:51.452Z,100087.25
2023-05-19T17:58:53.590Z,100095.13
2023-05-19T18:02:57.173Z,100091.72
2023-05-19T18:07:01.576Z,100096.03
2023-05-19T18:11:04.505Z,100099.22
2023-05-19T18:15:06.851Z,100094.50
2023-05-19T18:19:08.776Z,100096.53
2023-05-19T18:23:10.835Z,100094.91
2023-05-19T18:27:12.931Z,100103.16
2023-05-19T18:31:20.120Z,100103.47
2023-05-19T18:35:22.610Z,100095.69
2023-05-19T18:39:24.573Z,100103.00
2023-05-19T18:43:27.283Z,100096.97
2023-05-19T18:47:29.081Z,100098.41
2023-05-19T18:51:33.530Z,100102.38
2023-05-19T18:55:37.076Z,100093.84
2023-05-19T18:59:40.386Z,100098.09
2023-05-19T19:03:43.844Z,100099.00
2023-05-19T19:07:45.544Z,100100.50
2023-05-19T19:11:47.314Z,100093.06
2023-05-19T19:15:49.917Z,100090.66
2023-05-19T19:19:51.849Z,100104.84
2023-05-19T19:23:54.951Z,100104.31
2023-05-19T19:27:56.758Z,100120.78
2023-05-19T19:31:58.534Z,100120.81
2023-05-19T19:36:00.245Z,100124.16
2023-05-19T19:40:03.418Z,100122.50
2023-05-19T19:44:05.302Z,100125.84
2023-05-19T19:48:07.671Z,100120.03
2023-05-19T19:52:09.514Z,100138.63
2023-05-19T19:56:11.941Z,100132.47
2023-05-19T20:00:14.265Z,100129.94
2023-05-19T20:04:16.359Z,100134.09
2023-05-19T20:08:20.010Z,100131.84
2023-05-19T20:12:22.577Z,100137.94
2023-05-19T20:16:24.485Z,100132.31
2023-05-19T20:20:26.323Z,100128.41
2023-05-19T20:24:28.750Z,100138.03
2023-05-19T20:28:30.657Z,100129.94
2023-05-19T20:32:32.839Z,100132.97
2023-05-19T20:36:34.982Z,100134.00
2023-05-19T20:40:37.852Z,100133.91
2023-05-19T20:44:39.536Z,100136.94
2023-05-19T20:48:42.013Z,100131.34
2023-05-19T20:52:43.745Z,100129.34
2023-05-19T20:56:45.670Z,100129.25
2023-05-19T21:00:48.869Z,100127.25
2023-05-19T21:04:51.022Z,100128.31
2023-05-19T21:08:52.809Z,100132.97
2023-05-19T21:12:54.626Z,100125.72
2023-05-19T21:16:56.832Z,100130.13
2023-05-19T21:21:02.249Z,100134.78
2023-05-19T21:25:04.387Z,100134.13
2023-05-19T21:29:06.118Z,100130.13
2023-05-19T21:33:08.064Z,100138.91
2023-05-19T21:37:09.929Z,100134.97
2023-05-19T21:41:11.756Z,100134.34
2023-05-19T21:45:13.537Z,100137.34
2023-05-19T21:49:16.139Z,100143.03
2023-05-19T21:53:17.830Z,100145.75
2023-05-19T21:57:19.514Z,100141.25
2023-05-19T22:01:22.398Z,100143.63
2023-05-19T22:05:24.044Z,100142.06
2023-05-19T22:09:25.883Z,100146.66
2023-05-19T22:13:27.698Z,100139.63
2023-05-19T22:17:30.109Z,100138.72
2023-05-19T22:21:32.221Z,100141.66
2023-05-19T22:25:33.924Z,100144.84
2023-05-19T22:29:38.758Z,100139.00
2023-05-19T22:33:40.851Z,100138.69
2023-05-19T22:37:42.653Z,100140.31
2023-05-19T22:41:45.552Z,100136.63
2023-05-19T22:45:47.223Z,100130.69
2023-05-19T22:49:50.531Z,100122.06
2023-05-19T22:53:52.198Z,100121.16
2023-05-19T22:57:53.914Z,100110.59
2023-05-19T23:01:55.704Z,100117.72
2023-05-19T23:05:57.380Z,100116.38
2023-05-19T23:09:59.099Z,100114.44
2023-05-19T23:14:00.943Z,100112.78
2023-05-19T23:18:07.401Z,100110.25
2023-05-19T23:22:11.094Z,100112.44
2023-05-19T23:26:16.033Z,100112.38
2023-05-19T23:30:17.950Z,100114.53
2023-05-19T23:34:19.748Z,100104.50
2023-05-19T23:38:21.496Z,100112.44
2023-05-19T23:42:23.174Z,100114.03
2023-05-19T23:46:24.924Z,100101.72
2023-05-19T23:50:26.751Z,100094.78
2023-05-19T23:54:30.426Z,100097.19
2023-05-19T23:58:32.470Z,100091.59
